Portada
METAR-TAF:

METAR-TAF

Aeroports :

Arar, Aràbia Saudita

latitud: 30-54N, longitud: 041-08E, altitud: 555 m

Observació

L'informe es va fer fa 59 minuts, a les 13:00 UTC
Vent calma
Temperatura 18°C
Humitat 49%
Pressió 1019 hPa
Visibilitat 10 km o més
sense núvols per sota de 1500 mi sense presència de cumulonimbus.

METAR: OERR 291300Z 00000KT CAVOK 18/07 Q1019 NOSIG

Hora: 16:59 (13:59 UTC)

Pronòstic

L'informe es va fer fa 2 hores i 59 minuts, a les 11:00 UTC
Pronòstic vàlid del 29 a les 12 UTC al 30 a les 18 UTC
Vent 8 kt del Nord
Visibilitat: 7000 m
Evolucionant progressivament
l' 29 a les 18 UTC al 29 a les 20 UTC
Vent 6 kt del Sud
Temporalment
l' 29 a les 20 UTC al 30 a les 05 UTC
Visibilitat: 3000 m
boirina
Probabilitat 30% :
Temporalment
l' 30 a les 00 UTC al 30 a les 05 UTC
Visibilitat: 1000 m
boirina

TAF: OERR 291100Z 2912/3018 36008KT 7000 NSC BECMG 2918/2920 19006KT TEMPO 2920/3005 3000 BR PROB30 TEMPO 3000/3005 1000 BR

Observacions i pronòstics meteorològics de més de 4000 aeroports (METAR i TAF).

Les estacions disponibles són els punts grocs i vermells al mapa.

Posi el ratolí al punt desitjat per veure el nom de l'estació.

Feu clic per veure les observacions i els pronòstics meteorològics.

Per canviar el mapa: feu clic els botons verds amb una creu de color negre per apropar; al botó verd amb un guió per allunyar la imatge; o en les fletxes verdes per a mapes adjacents.


METAR-TAF: